createdAt,value
2022-09-06T04:01:42.612Z,99959.16
2022-09-06T04:05:46.333Z,99959.88
2022-09-06T04:09:49.120Z,99957.22
2022-09-06T04:13:51.899Z,99951.59
2022-09-06T04:17:55.909Z,99940.78
2022-09-06T04:21:58.601Z,99921.53
2022-09-06T04:26:01.618Z,99923.19
2022-09-06T04:30:05.316Z,99913.28
2022-09-06T04:34:09.314Z,99910.31
2022-09-06T04:38:12.115Z,99905.13
2022-09-06T04:42:15.698Z,99907.41
2022-09-06T04:46:21.976Z,99906.63
2022-09-06T04:50:26.315Z,99899.50
2022-09-06T04:54:43.414Z,99905.25
2022-09-06T04:58:47.489Z,99903.63
2022-09-06T05:02:56.328Z,99898.50
2022-09-06T05:07:05.098Z,99893.31
2022-09-06T05:11:09.193Z,99898.28
2022-09-06T05:15:12.331Z,99901.25
2022-09-06T05:19:15.718Z,99917.53
2022-09-06T05:23:19.806Z,99915.31
2022-09-06T05:27:22.474Z,99917.06
2022-09-06T05:31:28.544Z,99901.19
2022-09-06T05:35:31.272Z,99920.69
2022-09-06T05:39:35.381Z,99931.72
2022-09-06T05:43:38.077Z,99931.53
2022-09-06T05:47:41.148Z,99932.69
2022-09-06T05:51:43.842Z,99929.69
2022-09-06T05:55:47.918Z,99931.88
2022-09-06T05:59:50.830Z,99931.91
2022-09-06T06:03:55.357Z,99935.75
2022-09-06T06:07:59.706Z,99930.53
2022-09-06T06:12:04.213Z,99939.03
2022-09-06T06:16:07.666Z,99951.44
2022-09-06T06:20:10.905Z,99943.97
2022-09-06T06:24:13.655Z,99946.28
2022-09-06T06:28:17.667Z,99938.00
2022-09-06T06:32:20.347Z,99950.34
2022-09-06T06:36:24.799Z,99953.03
2022-09-06T06:40:27.649Z,99965.69
2022-09-06T06:44:31.697Z,99972.63
2022-09-06T06:48:34.476Z,99968.84
2022-09-06T06:52:37.158Z,99967.50
2022-09-06T06:56:42.161Z,99962.28
2022-09-06T07:00:46.927Z,99953.47
2022-09-06T07:04:49.663Z,99952.56
2022-09-06T07:08:52.358Z,99951.31
2022-09-06T07:12:55.571Z,99953.41
2022-09-06T07:16:59.585Z,99937.16
2022-09-06T07:25:25.692Z,99922.03
2022-09-06T07:29:28.416Z,99925.97
2022-09-06T07:33:32.482Z,99924.84
2022-09-06T07:37:35.435Z,99925.03
2022-09-06T07:41:38.139Z,99916.81
2022-09-06T07:45:40.812Z,99924.41
2022-09-06T07:54:29.836Z,99914.91
2022-09-06T07:58:34.698Z,99922.06
2022-09-06T08:02:37.394Z,99922.09
2022-09-06T08:11:07.546Z,99918.16
2022-09-06T08:15:11.070Z,99916.41
2022-09-06T08:19:13.771Z,99909.66
2022-09-06T08:23:17.843Z,99895.09
2022-09-06T08:27:20.502Z,99895.19
2022-09-06T08:31:23.476Z,99899.41
2022-09-06T08:35:26.190Z,99900.75
2022-09-06T08:39:30.264Z,99897.53
2022-09-06T08:43:33.973Z,99894.47
2022-09-06T08:47:37.662Z,99900.41
2022-09-06T08:52:05.897Z,99896.09
2022-09-06T08:56:16.889Z,99894.25
2022-09-06T09:00:21.259Z,99884.25
2022-09-06T09:04:27.545Z,99882.31
2022-09-06T09:08:38.064Z,99878.34
2022-09-06T09:12:46.775Z,99874.72
2022-09-06T09:16:51.772Z,99871.69
2022-09-06T09:20:54.525Z,99874.47
2022-09-06T09:25:03.070Z,99873.00
2022-09-06T09:29:10.032Z,99878.34
2022-09-06T09:33:23.575Z,99880.19
2022-09-06T09:41:51.694Z,99873.78
2022-09-06T09:46:30.729Z,99861.59
2022-09-06T09:50:35.682Z,99867.59
2022-09-06T09:54:40.443Z,99858.34
2022-09-06T09:58:43.851Z,99862.13
2022-09-06T10:02:47.988Z,99850.81
2022-09-06T10:11:14.904Z,99855.97
2022-09-06T10:15:34.477Z,99850.50
2022-09-06T10:19:46.328Z,99858.34
2022-09-06T10:24:28.098Z,99851.25
2022-09-06T10:28:34.453Z,99841.53
2022-09-06T10:32:42.641Z,99838.41
2022-09-06T10:36:55.147Z,99842.34
2022-09-06T10:41:10.413Z,99834.84
2022-09-06T10:45:22.235Z,99832.13
2022-09-06T10:49:25.100Z,99838.03
2022-09-06T10:53:37.327Z,99838.75
2022-09-06T11:02:19.562Z,99829.22
2022-09-06T11:06:28.770Z,99826.75
2022-09-06T11:10:35.346Z,99826.63
2022-09-06T11:14:40.465Z,99824.97
2022-09-06T11:18:49.161Z,99829.69
2022-09-06T11:23:18.338Z,99820.84
2022-09-06T11:27:34.903Z,99824.41
2022-09-06T11:36:21.496Z,99824.22
2022-09-06T11:40:28.476Z,99811.16
2022-09-06T11:44:55.548Z,99807.38
2022-09-06T11:49:03.401Z,99805.75
2022-09-06T11:53:17.434Z,99807.22
2022-09-06T11:57:23.570Z,99810.22
2022-09-06T12:01:41.971Z,99795.78
2022-09-06T12:06:16.113Z,99800.81
2022-09-06T12:10:58.104Z,99789.78
2022-09-06T12:15:29.023Z,99789.09
2022-09-06T12:19:47.681Z,99790.41
2022-09-06T12:23:50.332Z,99779.47
2022-09-06T12:27:55.342Z,99789.03
2022-09-06T12:32:01.569Z,99783.56
2022-09-06T12:36:17.752Z,99787.34
2022-09-06T12:40:21.723Z,99768.34
2022-09-06T12:44:32.801Z,99776.72
2022-09-06T12:48:41.234Z,99770.34
2022-09-06T12:52:50.556Z,99776.59
2022-09-06T12:56:54.403Z,99759.88
2022-09-06T13:01:04.515Z,99763.91
2022-09-06T13:05:11.112Z,99753.19
2022-09-06T13:09:18.831Z,99749.41
2022-09-06T13:13:24.194Z,99748.44
2022-09-06T13:17:29.835Z,99742.28
2022-09-06T13:21:34.196Z,99740.97
2022-09-06T13:25:48.731Z,99744.84
2022-09-06T13:29:57.782Z,99738.19
2022-09-06T13:34:01.030Z,99733.06
2022-09-06T13:38:30.739Z,99733.63
2022-09-06T13:42:36.669Z,99719.91
2022-09-06T13:46:39.622Z,99722.00
2022-09-06T13:50:42.725Z,99731.97
2022-09-06T13:54:45.966Z,99717.00
2022-09-06T13:58:50.013Z,99722.66
2022-09-06T14:02:55.419Z,99718.94
2022-09-06T14:06:59.392Z,99712.09
2022-09-06T14:11:05.031Z,99714.09
2022-09-06T14:15:09.941Z,99720.59
2022-09-06T14:19:13.138Z,99713.19
2022-09-06T14:23:16.164Z,99712.38
2022-09-06T14:27:20.206Z,99709.06
2022-09-06T14:31:26.421Z,99709.59
2022-09-06T14:35:29.860Z,99702.19
2022-09-06T14:39:32.864Z,99711.44
2022-09-06T14:43:36.619Z,99697.34
2022-09-06T14:47:40.659Z,99703.00
2022-09-06T14:51:43.416Z,99690.50
2022-09-06T14:55:46.203Z,99690.97
2022-09-06T14:59:48.938Z,99699.59
2022-09-06T15:03:55.844Z,99688.47
2022-09-06T15:07:58.557Z,99688.69
2022-09-06T15:12:01.571Z,99679.44
2022-09-06T15:16:04.637Z,99682.34
2022-09-06T15:20:09.487Z,99680.28
2022-09-06T15:24:12.502Z,99679.66
2022-09-06T15:28:16.133Z,99676.69
2022-09-06T15:32:18.820Z,99673.16
2022-09-06T15:36:22.957Z,99682.34
2022-09-06T15:40:27.795Z,99684.09
2022-09-06T15:44:30.555Z,99683.63
2022-09-06T15:48:41.874Z,99671.97
2022-09-06T15:52:45.974Z,99666.06
2022-09-06T15:56:49.215Z,99666.00
2022-09-06T16:01:02.070Z,99665.91
2022-09-06T16:05:05.867Z,99652.72
2022-09-06T16:09:14.080Z,99643.84
2022-09-06T16:13:17.641Z,99646.53
2022-09-06T16:17:22.360Z,99637.66
2022-09-06T16:21:28.234Z,99640.72
2022-09-06T16:25:32.629Z,99630.00
2022-09-06T16:29:35.410Z,99630.81
2022-09-06T16:33:40.192Z,99632.13
2022-09-06T16:37:43.045Z,99627.38
2022-09-06T16:41:48.039Z,99621.78
2022-09-06T16:45:57.444Z,99618.75
2022-09-06T16:50:00.582Z,99609.72
2022-09-06T16:54:04.148Z,99608.63
2022-09-06T16:58:08.308Z,99607.53
2022-09-06T17:02:11.147Z,99614.53
2022-09-06T17:06:14.651Z,99624.66
2022-09-06T17:10:21.047Z,99627.91
2022-09-06T17:14:25.479Z,99627.47
2022-09-06T17:18:28.292Z,99632.31
2022-09-06T17:22:31.021Z,99632.06
2022-09-06T17:26:35.637Z,99631.34
2022-09-06T17:30:46.517Z,99631.38
2022-09-06T17:34:49.268Z,99631.59
2022-09-06T17:38:53.844Z,99630.94
2022-09-06T17:42:56.803Z,99635.13
2022-09-06T17:47:13.905Z,99629.91
2022-09-06T17:51:17.990Z,99632.78
2022-09-06T17:55:20.816Z,99636.66
2022-09-06T17:59:23.899Z,99633.97
2022-09-06T18:03:28.155Z,99634.72
2022-09-06T18:07:31.030Z,99637.72
2022-09-06T18:11:34.974Z,99624.84
2022-09-06T18:16:04.346Z,99639.06
2022-09-06T18:20:10.477Z,99653.63
2022-09-06T18:24:14.814Z,99653.97
2022-09-06T18:28:17.655Z,99661.97
2022-09-06T18:32:21.840Z,99654.59
2022-09-06T18:36:31.188Z,99663.81
2022-09-06T18:40:34.659Z,99658.16
2022-09-06T18:44:37.525Z,99670.34
2022-09-06T18:48:41.926Z,99675.69
2022-09-06T18:52:46.010Z,99671.63
2022-09-06T18:56:50.012Z,99673.41
2022-09-06T19:00:53.064Z,99688.28
2022-09-06T19:04:56.018Z,99687.47
2022-09-06T19:09:01.638Z,99686.75
2022-09-06T19:13:06.616Z,99671.97
2022-09-06T19:17:09.842Z,99668.75
2022-09-06T19:21:14.376Z,99678.28
2022-09-06T19:25:19.412Z,99676.16
2022-09-06T19:29:22.156Z,99677.03
2022-09-06T19:33:25.183Z,99683.88
2022-09-06T19:37:28.583Z,99677.06
2022-09-06T19:41:34.394Z,99675.63
2022-09-06T19:45:39.250Z,99666.50
2022-09-06T19:49:42.374Z,99666.78
2022-09-06T19:53:49.515Z,99665.50
2022-09-06T19:57:53.804Z,99654.34
2022-09-06T20:01:56.499Z,99655.09
2022-09-06T20:06:02.147Z,99658.66
2022-09-06T20:10:06.503Z,99654.97
2022-09-06T20:14:11.167Z,99664.50
2022-09-06T20:18:14.758Z,99662.59
2022-09-06T20:22:17.527Z,99666.13
2022-09-06T20:26:22.858Z,99661.06
2022-09-06T20:30:29.425Z,99651.34
2022-09-06T20:34:32.297Z,99649.59
2022-09-06T20:38:37.297Z,99640.94
2022-09-06T20:42:42.219Z,99637.81
2022-09-06T20:46:46.592Z,99631.75
2022-09-06T20:50:57.767Z,99627.59
2022-09-06T20:55:00.549Z,99608.50
2022-09-06T20:59:05.448Z,99615.44
